sensor_id;sensor_type;location;lat;lon;timestamp;P1;durP1;ratioP1;P2;durP2;ratioP2
53674;SDS011;39574;50.534;8.500;2023-06-10T00:03:32;3.3;;;1.3;;
53674;SDS011;39574;50.534;8.500;2023-06-10T00:08:32;3.4;;;1.3;;
53674;SDS011;39574;50.534;8.500;2023-06-10T00:13:31;3.1;;;1.2;;
53674;SDS011;39574;50.534;8.500;2023-06-10T00:18:30;3.0;;;1.2;;
53674;SDS011;39574;50.534;8.500;2023-06-10T00:23:30;3.1;;;1.3;;
53674;SDS011;39574;50.534;8.500;2023-06-10T00:28:29;2.9;;;1.2;;
53674;SDS011;39574;50.534;8.500;2023-06-10T00:33:28;3.2;;;1.1;;
53674;SDS011;39574;50.534;8.500;2023-06-10T00:38:28;3.1;;;1.1;;
53674;SDS011;39574;50.534;8.500;2023-06-10T00:43:27;3.6;;;1.4;;
53674;SDS011;39574;50.534;8.500;2023-06-10T00:48:27;3.5;;;1.3;;
53674;SDS011;39574;50.534;8.500;2023-06-10T00:53:26;3.6;;;1.6;;
53674;SDS011;39574;50.534;8.500;2023-06-10T00:58:25;3.5;;;1.7;;
53674;SDS011;39574;50.534;8.500;2023-06-10T01:03:24;3.4;;;1.4;;
53674;SDS011;39574;50.534;8.500;2023-06-10T01:08:26;3.3;;;1.4;;
53674;SDS011;39574;50.534;8.500;2023-06-10T01:13:23;3.4;;;1.5;;
53674;SDS011;39574;50.534;8.500;2023-06-10T01:18:22;3.5;;;1.3;;
53674;SDS011;39574;50.534;8.500;2023-06-10T01:23:22;3.2;;;1.3;;
53674;SDS011;39574;50.534;8.500;2023-06-10T01:28:21;3.2;;;1.2;;
53674;SDS011;39574;50.534;8.500;2023-06-10T01:33:22;3.4;;;1.2;;
53674;SDS011;39574;50.534;8.500;2023-06-10T01:38:19;3.5;;;1.5;;
53674;SDS011;39574;50.534;8.500;2023-06-10T01:43:19;6.7;;;1.6;;
53674;SDS011;39574;50.534;8.500;2023-06-10T01:48:18;5.8;;;1.5;;
53674;SDS011;39574;50.534;8.500;2023-06-10T01:53:17;8.6;;;1.6;;
53674;SDS011;39574;50.534;8.500;2023-06-10T01:58:17;6.6;;;1.4;;
53674;SDS011;39574;50.534;8.500;2023-06-10T02:03:16;5.5;;;1.3;;
53674;SDS011;39574;50.534;8.500;2023-06-10T02:08:15;4.2;;;1.1;;
53674;SDS011;39574;50.534;8.500;2023-06-10T02:13:14;3.0;;;1.0;;
53674;SDS011;39574;50.534;8.500;2023-06-10T02:18:14;2.9;;;1.0;;
53674;SDS011;39574;50.534;8.500;2023-06-10T02:23:13;2.6;;;1.0;;
53674;SDS011;39574;50.534;8.500;2023-06-10T02:28:12;3.7;;;1.2;;
53674;SDS011;39574;50.534;8.500;2023-06-10T02:33:12;3.6;;;1.5;;
53674;SDS011;39574;50.534;8.500;2023-06-10T02:38:11;3.5;;;1.4;;
53674;SDS011;39574;50.534;8.500;2023-06-10T02:43:10;3.8;;;1.5;;
53674;SDS011;39574;50.534;8.500;2023-06-10T02:48:09;3.8;;;1.4;;
53674;SDS011;39574;50.534;8.500;2023-06-10T02:53:09;3.6;;;1.5;;
53674;SDS011;39574;50.534;8.500;2023-06-10T02:58:08;3.4;;;1.3;;
53674;SDS011;39574;50.534;8.500;2023-06-10T03:03:07;3.1;;;1.3;;
53674;SDS011;39574;50.534;8.500;2023-06-10T03:08:06;3.4;;;1.3;;
53674;SDS011;39574;50.534;8.500;2023-06-10T03:13:06;3.2;;;1.3;;
53674;SDS011;39574;50.534;8.500;2023-06-10T03:18:05;2.9;;;1.2;;
53674;SDS011;39574;50.534;8.500;2023-06-10T03:23:04;3.2;;;1.2;;
53674;SDS011;39574;50.534;8.500;2023-06-10T03:28:04;4.1;;;1.5;;
53674;SDS011;39574;50.534;8.500;2023-06-10T03:33:02;3.7;;;1.3;;
53674;SDS011;39574;50.534;8.500;2023-06-10T03:38:02;3.6;;;1.3;;
53674;SDS011;39574;50.534;8.500;2023-06-10T03:43:01;3.1;;;1.2;;
53674;SDS011;39574;50.534;8.500;2023-06-10T03:48:00;3.0;;;1.1;;
53674;SDS011;39574;50.534;8.500;2023-06-10T03:53:00;3.2;;;1.2;;
53674;SDS011;39574;50.534;8.500;2023-06-10T03:57:59;3.0;;;1.2;;
53674;SDS011;39574;50.534;8.500;2023-06-10T04:02:58;3.3;;;1.3;;
53674;SDS011;39574;50.534;8.500;2023-06-10T04:07:57;3.1;;;1.2;;
53674;SDS011;39574;50.534;8.500;2023-06-10T04:12:57;2.9;;;1.1;;
53674;SDS011;39574;50.534;8.500;2023-06-10T04:17:56;3.0;;;1.2;;
53674;SDS011;39574;50.534;8.500;2023-06-10T04:22:55;3.0;;;1.2;;
53674;SDS011;39574;50.534;8.500;2023-06-10T04:27:55;3.0;;;1.1;;
53674;SDS011;39574;50.534;8.500;2023-06-10T04:32:54;3.3;;;1.2;;
53674;SDS011;39574;50.534;8.500;2023-06-10T04:37:53;3.1;;;1.2;;
53674;SDS011;39574;50.534;8.500;2023-06-10T04:42:53;2.9;;;1.2;;
53674;SDS011;39574;50.534;8.500;2023-06-10T04:47:52;3.0;;;1.1;;
53674;SDS011;39574;50.534;8.500;2023-06-10T04:52:51;3.0;;;1.0;;
53674;SDS011;39574;50.534;8.500;2023-06-10T04:57:51;3.3;;;1.3;;
53674;SDS011;39574;50.534;8.500;2023-06-10T05:02:50;3.3;;;1.3;;
53674;SDS011;39574;50.534;8.500;2023-06-10T05:07:49;3.2;;;1.3;;
53674;SDS011;39574;50.534;8.500;2023-06-10T05:12:48;3.4;;;1.2;;
53674;SDS011;39574;50.534;8.500;2023-06-10T05:17:48;3.4;;;1.1;;
53674;SDS011;39574;50.534;8.500;2023-06-10T05:22:47;3.1;;;1.2;;
53674;SDS011;39574;50.534;8.500;2023-06-10T05:27:47;2.9;;;1.1;;
53674;SDS011;39574;50.534;8.500;2023-06-10T05:32:46;3.0;;;1.3;;
53674;SDS011;39574;50.534;8.500;2023-06-10T05:37:45;2.9;;;1.1;;
53674;SDS011;39574;50.534;8.500;2023-06-10T05:42:45;3.6;;;1.4;;
53674;SDS011;39574;50.534;8.500;2023-06-10T05:47:44;10.0;;;1.5;;
53674;SDS011;39574;50.534;8.500;2023-06-10T05:52:43;9.5;;;1.7;;
53674;SDS011;39574;50.534;8.500;2023-06-10T05:57:43;7.3;;;1.4;;
53674;SDS011;39574;50.534;8.500;2023-06-10T06:02:42;5.1;;;1.2;;
53674;SDS011;39574;50.534;8.500;2023-06-10T06:07:42;3.0;;;1.0;;
53674;SDS011;39574;50.534;8.500;2023-06-10T06:12:41;2.9;;;0.9;;
53674;SDS011;39574;50.534;8.500;2023-06-10T06:17:40;2.9;;;0.9;;
53674;SDS011;39574;50.534;8.500;2023-06-10T06:22:40;3.3;;;0.9;;
53674;SDS011;39574;50.534;8.500;2023-06-10T06:27:39;3.1;;;0.9;;
53674;SDS011;39574;50.534;8.500;2023-06-10T06:32:39;2.7;;;0.8;;
53674;SDS011;39574;50.534;8.500;2023-06-10T06:37:38;3.9;;;2.6;;
53674;SDS011;39574;50.534;8.500;2023-06-10T06:42:38;3.7;;;2.3;;
53674;SDS011;39574;50.534;8.500;2023-06-10T06:47:37;45.7;;;5.7;;
53674;SDS011;39574;50.534;8.500;2023-06-10T06:52:37;63.9;;;8.4;;
53674;SDS011;39574;50.534;8.500;2023-06-10T06:57:36;97.7;;;12.6;;
53674;SDS011;39574;50.534;8.500;2023-06-10T07:02:36;195.4;;;17.4;;
53674;SDS011;39574;50.534;8.500;2023-06-10T07:07:35;250.5;;;18.2;;
53674;SDS011;39574;50.534;8.500;2023-06-10T07:12:35;447.7;;;31.5;;
53674;SDS011;39574;50.534;8.500;2023-06-10T07:17:34;351.7;;;25.2;;
53674;SDS011;39574;50.534;8.500;2023-06-10T07:22:34;211.1;;;17.4;;
53674;SDS011;39574;50.534;8.500;2023-06-10T07:27:33;101.8;;;11.1;;
53674;SDS011;39574;50.534;8.500;2023-06-10T07:32:33;22.2;;;6.0;;
53674;SDS011;39574;50.534;8.500;2023-06-10T07:37:32;10.4;;;5.4;;
53674;SDS011;39574;50.534;8.500;2023-06-10T07:42:34;11.3;;;5.5;;
53674;SDS011;39574;50.534;8.500;2023-06-10T07:47:33;34.8;;;7.2;;
53674;SDS011;39574;50.534;8.500;2023-06-10T07:52:31;27.9;;;6.8;;
53674;SDS011;39574;50.534;8.500;2023-06-10T07:57:31;22.0;;;6.6;;
53674;SDS011;39574;50.534;8.500;2023-06-10T08:02:30;16.2;;;6.5;;
53674;SDS011;39574;50.534;8.500;2023-06-10T08:07:30;9.8;;;5.9;;
53674;SDS011;39574;50.534;8.500;2023-06-10T08:12:30;10.2;;;6.1;;
53674;SDS011;39574;50.534;8.500;2023-06-10T08:17:29;15.4;;;6.2;;
53674;SDS011;39574;50.534;8.500;2023-06-10T08:22:29;14.6;;;6.3;;
53674;SDS011;39574;50.534;8.500;2023-06-10T08:27:29;12.9;;;6.2;;
53674;SDS011;39574;50.534;8.500;2023-06-10T08:32:29;12.0;;;6.3;;
53674;SDS011;39574;50.534;8.500;2023-06-10T08:37:28;10.7;;;6.2;;
53674;SDS011;39574;50.534;8.500;2023-06-10T08:42:28;10.6;;;6.4;;
53674;SDS011;39574;50.534;8.500;2023-06-10T08:47:29;10.1;;;6.4;;
53674;SDS011;39574;50.534;8.500;2023-06-10T08:52:27;10.1;;;6.2;;
53674;SDS011;39574;50.534;8.500;2023-06-10T08:57:27;9.9;;;6.3;;
53674;SDS011;39574;50.534;8.500;2023-06-10T09:02:27;10.3;;;6.3;;
53674;SDS011;39574;50.534;8.500;2023-06-10T09:07:26;9.7;;;6.1;;
53674;SDS011;39574;50.534;8.500;2023-06-10T09:12:26;9.7;;;6.0;;
53674;SDS011;39574;50.534;8.500;2023-06-10T09:17:25;11.2;;;6.2;;
53674;SDS011;39574;50.534;8.500;2023-06-10T09:22:25;48.4;;;8.2;;
53674;SDS011;39574;50.534;8.500;2023-06-10T09:27:25;38.4;;;7.7;;
53674;SDS011;39574;50.534;8.500;2023-06-10T09:32:25;30.3;;;7.3;;
53674;SDS011;39574;50.534;8.500;2023-06-10T09:37:25;20.4;;;6.7;;
53674;SDS011;39574;50.534;8.500;2023-06-10T09:42:25;11.6;;;6.3;;
53674;SDS011;39574;50.534;8.500;2023-06-10T09:47:24;11.1;;;6.1;;
53674;SDS011;39574;50.534;8.500;2023-06-10T09:52:24;9.9;;;5.8;;
53674;SDS011;39574;50.534;8.500;2023-06-10T09:57:25;10.6;;;5.8;;
53674;SDS011;39574;50.534;8.500;2023-06-10T10:02:24;9.7;;;5.7;;
53674;SDS011;39574;50.534;8.500;2023-06-10T10:07:24;10.3;;;5.8;;
53674;SDS011;39574;50.534;8.500;2023-06-10T10:12:23;9.7;;;5.5;;
53674;SDS011;39574;50.534;8.500;2023-06-10T10:17:23;9.5;;;5.6;;
53674;SDS011;39574;50.534;8.500;2023-06-10T10:22:24;10.2;;;5.7;;
53674;SDS011;39574;50.534;8.500;2023-06-10T10:27:26;10.1;;;5.8;;
53674;SDS011;39574;50.534;8.500;2023-06-10T10:32:24;12.0;;;5.7;;
53674;SDS011;39574;50.534;8.500;2023-06-10T10:37:23;11.5;;;5.6;;
53674;SDS011;39574;50.534;8.500;2023-06-10T10:42:23;10.5;;;5.4;;
53674;SDS011;39574;50.534;8.500;2023-06-10T10:47:23;79.6;;;9.6;;
53674;SDS011;39574;50.534;8.500;2023-06-10T10:52:23;61.1;;;8.3;;
53674;SDS011;39574;50.534;8.500;2023-06-10T10:57:23;85.8;;;9.6;;
53674;SDS011;39574;50.534;8.500;2023-06-10T11:02:32;66.4;;;8.2;;
53674;SDS011;39574;50.534;8.500;2023-06-10T11:07:22;36.0;;;6.4;;
53674;SDS011;39574;50.534;8.500;2023-06-10T11:12:22;23.5;;;5.7;;
53674;SDS011;39574;50.534;8.500;2023-06-10T11:17:22;11.1;;;4.9;;
53674;SDS011;39574;50.534;8.500;2023-06-10T11:22:22;8.7;;;4.9;;
53674;SDS011;39574;50.534;8.500;2023-06-10T11:27:22;8.8;;;5.1;;
53674;SDS011;39574;50.534;8.500;2023-06-10T11:32:22;8.5;;;5.1;;
53674;SDS011;39574;50.534;8.500;2023-06-10T11:37:22;8.3;;;5.0;;
53674;SDS011;39574;50.534;8.500;2023-06-10T11:42:22;8.1;;;4.8;;
53674;SDS011;39574;50.534;8.500;2023-06-10T11:47:22;8.5;;;4.7;;
53674;SDS011;39574;50.534;8.500;2023-06-10T11:52:25;10.2;;;4.8;;
53674;SDS011;39574;50.534;8.500;2023-06-10T11:57:21;10.4;;;4.8;;
53674;SDS011;39574;50.534;8.500;2023-06-10T12:02:21;9.3;;;4.5;;
53674;SDS011;39574;50.534;8.500;2023-06-10T12:07:21;9.0;;;4.3;;
53674;SDS011;39574;50.534;8.500;2023-06-10T12:12:22;7.9;;;4.3;;
53674;SDS011;39574;50.534;8.500;2023-06-10T12:17:22;7.8;;;4.3;;
53674;SDS011;39574;50.534;8.500;2023-06-10T12:22:21;7.5;;;4.4;;
53674;SDS011;39574;50.534;8.500;2023-06-10T12:27:21;7.2;;;4.4;;
53674;SDS011;39574;50.534;8.500;2023-06-10T12:37:21;7.0;;;4.3;;
53674;SDS011;39574;50.534;8.500;2023-06-10T12:42:21;7.2;;;4.2;;
53674;SDS011;39574;50.534;8.500;2023-06-10T12:47:21;8.0;;;4.2;;
53674;SDS011;39574;50.534;8.500;2023-06-10T12:52:24;7.9;;;4.1;;
53674;SDS011;39574;50.534;8.500;2023-06-10T12:57:21;9.4;;;4.3;;
53674;SDS011;39574;50.534;8.500;2023-06-10T13:02:21;8.5;;;4.3;;
53674;SDS011;39574;50.534;8.500;2023-06-10T13:07:21;8.2;;;4.4;;
53674;SDS011;39574;50.534;8.500;2023-06-10T13:12:21;8.9;;;4.3;;
53674;SDS011;39574;50.534;8.500;2023-06-10T13:17:21;8.7;;;4.3;;
53674;SDS011;39574;50.534;8.500;2023-06-10T13:22:22;8.3;;;4.3;;
53674;SDS011;39574;50.534;8.500;2023-06-10T13:27:21;7.5;;;4.3;;
53674;SDS011;39574;50.534;8.500;2023-06-10T13:32:21;7.6;;;4.4;;
53674;SDS011;39574;50.534;8.500;2023-06-10T13:37:21;10.3;;;4.7;;
53674;SDS011;39574;50.534;8.500;2023-06-10T13:42:21;9.6;;;4.7;;
53674;SDS011;39574;50.534;8.500;2023-06-10T13:47:21;8.6;;;4.4;;
53674;SDS011;39574;50.534;8.500;2023-06-10T13:52:21;8.2;;;4.4;;
53674;SDS011;39574;50.534;8.500;2023-06-10T13:57:21;7.3;;;4.3;;
53674;SDS011;39574;50.534;8.500;2023-06-10T14:02:21;6.9;;;4.2;;
53674;SDS011;39574;50.534;8.500;2023-06-10T14:07:21;6.8;;;4.2;;
53674;SDS011;39574;50.534;8.500;2023-06-10T14:12:21;6.5;;;4.2;;
53674;SDS011;39574;50.534;8.500;2023-06-10T14:17:21;6.8;;;4.3;;
53674;SDS011;39574;50.534;8.500;2023-06-10T14:22:21;7.0;;;4.1;;
53674;SDS011;39574;50.534;8.500;2023-06-10T14:27:21;7.7;;;4.1;;
53674;SDS011;39574;50.534;8.500;2023-06-10T14:32:21;7.5;;;4.0;;
53674;SDS011;39574;50.534;8.500;2023-06-10T14:37:21;7.0;;;3.9;;
53674;SDS011;39574;50.534;8.500;2023-06-10T14:42:21;7.3;;;4.0;;
53674;SDS011;39574;50.534;8.500;2023-06-10T14:47:21;7.2;;;4.0;;
53674;SDS011;39574;50.534;8.500;2023-06-10T14:52:21;6.9;;;4.0;;
53674;SDS011;39574;50.534;8.500;2023-06-10T14:57:21;8.0;;;4.0;;
53674;SDS011;39574;50.534;8.500;2023-06-10T15:02:21;8.9;;;4.0;;
53674;SDS011;39574;50.534;8.500;2023-06-10T15:07:21;8.5;;;4.0;;
53674;SDS011;39574;50.534;8.500;2023-06-10T15:12:21;8.4;;;4.0;;
53674;SDS011;39574;50.534;8.500;2023-06-10T15:17:21;7.5;;;4.1;;
53674;SDS011;39574;50.534;8.500;2023-06-10T15:22:21;7.3;;;4.0;;
53674;SDS011;39574;50.534;8.500;2023-06-10T15:27:21;8.0;;;4.0;;
53674;SDS011;39574;50.534;8.500;2023-06-10T15:32:21;7.5;;;3.8;;
53674;SDS011;39574;50.534;8.500;2023-06-10T15:37:21;7.7;;;3.7;;
53674;SDS011;39574;50.534;8.500;2023-06-10T15:42:21;7.2;;;3.7;;
53674;SDS011;39574;50.534;8.500;2023-06-10T15:47:21;7.1;;;3.7;;
53674;SDS011;39574;50.534;8.500;2023-06-10T15:52:21;7.8;;;3.8;;
53674;SDS011;39574;50.534;8.500;2023-06-10T15:57:21;7.4;;;3.9;;
53674;SDS011;39574;50.534;8.500;2023-06-10T16:02:21;7.4;;;3.9;;
53674;SDS011;39574;50.534;8.500;2023-06-10T16:07:21;7.0;;;3.9;;
53674;SDS011;39574;50.534;8.500;2023-06-10T16:12:21;7.0;;;4.0;;
53674;SDS011;39574;50.534;8.500;2023-06-10T16:17:21;7.5;;;4.1;;
53674;SDS011;39574;50.534;8.500;2023-06-10T16:22:21;7.9;;;4.2;;
53674;SDS011;39574;50.534;8.500;2023-06-10T16:27:21;7.5;;;4.1;;
53674;SDS011;39574;50.534;8.500;2023-06-10T16:32:21;7.6;;;4.1;;
53674;SDS011;39574;50.534;8.500;2023-06-10T16:37:21;7.5;;;4.1;;
53674;SDS011;39574;50.534;8.500;2023-06-10T16:42:21;7.4;;;4.1;;
53674;SDS011;39574;50.534;8.500;2023-06-10T16:47:21;7.3;;;4.1;;
53674;SDS011;39574;50.534;8.500;2023-06-10T16:52:20;8.5;;;4.2;;
53674;SDS011;39574;50.534;8.500;2023-06-10T16:57:20;8.8;;;4.4;;
53674;SDS011;39574;50.534;8.500;2023-06-10T17:02:20;9.0;;;4.7;;
53674;SDS011;39574;50.534;8.500;2023-06-10T17:07:20;8.6;;;4.8;;
53674;SDS011;39574;50.534;8.500;2023-06-10T17:12:20;8.3;;;4.7;;
53674;SDS011;39574;50.534;8.500;2023-06-10T17:17:20;8.6;;;4.9;;
53674;SDS011;39574;50.534;8.500;2023-06-10T17:22:20;8.8;;;5.0;;
53674;SDS011;39574;50.534;8.500;2023-06-10T17:27:20;8.8;;;5.2;;
53674;SDS011;39574;50.534;8.500;2023-06-10T17:32:20;9.1;;;5.4;;
53674;SDS011;39574;50.534;8.500;2023-06-10T17:37:19;8.8;;;5.6;;
53674;SDS011;39574;50.534;8.500;2023-06-10T17:42:19;8.5;;;5.6;;
53674;SDS011;39574;50.534;8.500;2023-06-10T17:47:19;8.7;;;5.9;;
53674;SDS011;39574;50.534;8.500;2023-06-10T17:52:19;9.2;;;5.8;;
53674;SDS011;39574;50.534;8.500;2023-06-10T17:57:19;9.8;;;6.0;;
53674;SDS011;39574;50.534;8.500;2023-06-10T18:02:19;9.5;;;6.1;;
53674;SDS011;39574;50.534;8.500;2023-06-10T18:07:18;9.8;;;6.3;;
53674;SDS011;39574;50.534;8.500;2023-06-10T18:12:18;9.4;;;6.2;;
53674;SDS011;39574;50.534;8.500;2023-06-10T18:17:18;9.2;;;6.4;;
53674;SDS011;39574;50.534;8.500;2023-06-10T18:22:18;9.9;;;6.6;;
53674;SDS011;39574;50.534;8.500;2023-06-10T18:27:17;9.4;;;6.4;;
53674;SDS011;39574;50.534;8.500;2023-06-10T18:32:17;9.3;;;6.3;;
53674;SDS011;39574;50.534;8.500;2023-06-10T18:37:17;8.9;;;6.1;;
53674;SDS011;39574;50.534;8.500;2023-06-10T18:42:17;8.6;;;6.1;;
53674;SDS011;39574;50.534;8.500;2023-06-10T18:47:17;9.3;;;6.1;;
53674;SDS011;39574;50.534;8.500;2023-06-10T18:52:16;9.1;;;6.0;;
53674;SDS011;39574;50.534;8.500;2023-06-10T18:57:16;9.2;;;5.9;;
53674;SDS011;39574;50.534;8.500;2023-06-10T19:02:16;9.3;;;6.0;;
53674;SDS011;39574;50.534;8.500;2023-06-10T19:07:15;9.3;;;5.9;;
53674;SDS011;39574;50.534;8.500;2023-06-10T19:12:15;9.2;;;6.0;;
53674;SDS011;39574;50.534;8.500;2023-06-10T19:17:15;9.0;;;6.0;;
53674;SDS011;39574;50.534;8.500;2023-06-10T19:22:15;8.9;;;6.1;;
53674;SDS011;39574;50.534;8.500;2023-06-10T19:27:14;8.6;;;6.1;;
53674;SDS011;39574;50.534;8.500;2023-06-10T19:32:14;8.6;;;5.8;;
53674;SDS011;39574;50.534;8.500;2023-06-10T19:37:14;8.7;;;5.8;;
53674;SDS011;39574;50.534;8.500;2023-06-10T19:42:13;8.7;;;6.0;;
53674;SDS011;39574;50.534;8.500;2023-06-10T19:47:13;8.9;;;6.0;;
53674;SDS011;39574;50.534;8.500;2023-06-10T19:52:13;9.0;;;6.0;;
53674;SDS011;39574;50.534;8.500;2023-06-10T19:57:12;8.7;;;6.0;;
53674;SDS011;39574;50.534;8.500;2023-06-10T20:02:12;8.9;;;5.9;;
53674;SDS011;39574;50.534;8.500;2023-06-10T20:07:12;8.8;;;6.1;;
53674;SDS011;39574;50.534;8.500;2023-06-10T20:12:11;9.4;;;5.9;;
53674;SDS011;39574;50.534;8.500;2023-06-10T20:17:11;9.7;;;5.8;;
53674;SDS011;39574;50.534;8.500;2023-06-10T20:27:10;9.5;;;5.7;;
53674;SDS011;39574;50.534;8.500;2023-06-10T20:32:10;9.2;;;5.6;;
53674;SDS011;39574;50.534;8.500;2023-06-10T20:37:10;8.9;;;5.7;;
53674;SDS011;39574;50.534;8.500;2023-06-10T20:42:09;8.7;;;5.8;;
53674;SDS011;39574;50.534;8.500;2023-06-10T20:47:09;8.9;;;6.0;;
53674;SDS011;39574;50.534;8.500;2023-06-10T20:52:09;9.1;;;6.2;;
53674;SDS011;39574;50.534;8.500;2023-06-10T20:57:09;9.4;;;6.1;;
53674;SDS011;39574;50.534;8.500;2023-06-10T21:02:08;9.7;;;6.3;;
53674;SDS011;39574;50.534;8.500;2023-06-10T21:07:08;9.9;;;6.8;;
53674;SDS011;39574;50.534;8.500;2023-06-10T21:12:07;10.1;;;7.3;;
53674;SDS011;39574;50.534;8.500;2023-06-10T21:17:07;10.9;;;7.7;;
53674;SDS011;39574;50.534;8.500;2023-06-10T21:22:07;11.4;;;7.5;;
53674;SDS011;39574;50.534;8.500;2023-06-10T21:27:06;10.9;;;7.2;;
53674;SDS011;39574;50.534;8.500;2023-06-10T21:32:06;11.0;;;7.3;;
53674;SDS011;39574;50.534;8.500;2023-06-10T21:37:06;11.1;;;7.5;;
53674;SDS011;39574;50.534;8.500;2023-06-10T21:42:05;11.1;;;7.6;;
53674;SDS011;39574;50.534;8.500;2023-06-10T21:47:05;10.8;;;7.6;;
53674;SDS011;39574;50.534;8.500;2023-06-10T21:52:04;10.7;;;7.6;;
53674;SDS011;39574;50.534;8.500;2023-06-10T21:57:04;10.8;;;7.5;;
53674;SDS011;39574;50.534;8.500;2023-06-10T22:02:04;10.7;;;7.5;;
53674;SDS011;39574;50.534;8.500;2023-06-10T22:07:03;10.4;;;7.5;;
53674;SDS011;39574;50.534;8.500;2023-06-10T22:12:03;10.8;;;7.5;;
53674;SDS011;39574;50.534;8.500;2023-06-10T22:17:02;10.7;;;7.4;;
53674;SDS011;39574;50.534;8.500;2023-06-10T22:22:02;11.4;;;7.4;;
53674;SDS011;39574;50.534;8.500;2023-06-10T22:27:01;11.2;;;7.3;;
53674;SDS011;39574;50.534;8.500;2023-06-10T22:32:01;11.0;;;7.4;;
53674;SDS011;39574;50.534;8.500;2023-06-10T22:37:00;10.5;;;7.2;;
53674;SDS011;39574;50.534;8.500;2023-06-10T22:42:00;10.4;;;7.0;;
53674;SDS011;39574;50.534;8.500;2023-06-10T22:46:59;10.3;;;6.9;;
53674;SDS011;39574;50.534;8.500;2023-06-10T22:51:59;10.0;;;6.8;;
53674;SDS011;39574;50.534;8.500;2023-06-10T22:56:59;10.1;;;6.8;;
53674;SDS011;39574;50.534;8.500;2023-06-10T23:01:58;9.7;;;6.6;;
53674;SDS011;39574;50.534;8.500;2023-06-10T23:06:58;9.9;;;6.6;;
53674;SDS011;39574;50.534;8.500;2023-06-10T23:11:57;9.9;;;6.5;;
53674;SDS011;39574;50.534;8.500;2023-06-10T23:16:57;9.9;;;6.5;;
53674;SDS011;39574;50.534;8.500;2023-06-10T23:21:56;10.0;;;6.7;;
53674;SDS011;39574;50.534;8.500;2023-06-10T23:26:56;9.7;;;6.5;;
53674;SDS011;39574;50.534;8.500;2023-06-10T23:31:56;9.7;;;6.6;;
53674;SDS011;39574;50.534;8.500;2023-06-10T23:36:55;9.2;;;6.4;;
53674;SDS011;39574;50.534;8.500;2023-06-10T23:41:55;9.5;;;6.5;;
53674;SDS011;39574;50.534;8.500;2023-06-10T23:46:54;9.9;;;6.5;;
53674;SDS011;39574;50.534;8.500;2023-06-10T23:51:54;9.7;;;6.6;;
53674;SDS011;39574;50.534;8.500;2023-06-10T23:56:53;10.3;;;6.8;;
